ROMMA est une association bénévole à but non lucratif. Votre soutien est indispensable : ADHERER à ROMMA ou FAIRE un DON

Peyrus - (26, Drôme)

Vercors Ouest (430 m)   Longitude: 05°06'28"E   Latitude: 44°54'41"N Station partenaire n°83
 

Détail journalier du     <<     >>

Température Precipitation Humidité Pression Vent Dir Rafale Dir. rafale Second capteur de température situé à 410 m
Heure (°C) (mm) (%) (hPa) (km/h) (km/h) (°C)
01:00 13.3049100813SO58SSE12.8
02:00 13.7049100817SO58SSE13.3
03:00 13.4051100814S56SSE12.8
04:00 13.6052100813S55S13.3
05:00 14.2047100614S61S13.9
06:00 14.3042100713S68ENE13.9
07:00 14.2040100612S53SSO13.9
08:00 15.3037100713SO48SE14.4
09:00 16.2035100715SO47SO16.1
10:00 17.703410088S45SSE18.3
11:00 18.9034100610SO53S19.4
12:00 18.4037100615S81SO18.9
13:00 19.1039100614SSO55S20.0
14:00 19.5040100619SSO61ESE20.0
15:00 18.9042100616S56SSO19.4
16:00 18.6043100614SO53S18.9
17:00 18.3046100617S53S18.9
18:00 17.5049100613S63ESE17.8
19:00 15.6159100612S53S15.6
20:00 15.20.661100716SSE71E14.4
21:00 15.20.660100813SE55SSO14.4
22:00 9.0075101312N58SO8.9
23:00 5.89.88510151N16N6.1
minuit 5.73.28410143E23E6.1

Graphique du 25-04-2019

 

Serveur OMMA